Weather at University of Illinois Willard Airport

Public forecast

Using degrees Fahrenheit for public forecast. Weather courtesy of forecast.io.

Current aviation weather report (METAR) for University of Illinois Willard Airport

Retrieved 2020/12/04 10:53 UTC (20 minutes ago):

KCMI 041053Z AUTO 22007KT 5SM BR CLR M02/M03 A3001 RMK AO2 SLP168 T10221028

Aviation forecast (TAF) for University of Illinois Willard Airport

Retrieved 2020/12/04 06:33 UTC (5 hours ago):

TAF KCMI 040531Z 0406/0506 22007KT P6SM SKC FM041500 24012KT P6SM SKC FM050000 31005KT P6SM SKC